sensor_id;sensor_type;location;lat;lon;timestamp;pressure;altitude;pressure_sealevel;temperature;humidity
66176;BME280;52977;44.816;20.538;2024-02-26T00:01:01;98931.09;;;13.63;77.09
66176;BME280;52977;44.816;20.538;2024-02-26T00:03:28;98933.00;;;13.63;77.06
66176;BME280;52977;44.816;20.538;2024-02-26T00:05:54;98927.16;;;13.64;77.24
66176;BME280;52977;44.816;20.538;2024-02-26T00:08:22;98924.38;;;13.61;77.32
66176;BME280;52977;44.816;20.538;2024-02-26T00:10:48;98929.34;;;13.55;77.67
66176;BME280;52977;44.816;20.538;2024-02-26T00:13:15;98923.41;;;13.53;77.98
66176;BME280;52977;44.816;20.538;2024-02-26T00:15:41;98925.75;;;13.51;77.83
66176;BME280;52977;44.816;20.538;2024-02-26T00:18:07;98923.06;;;13.55;78.27
66176;BME280;52977;44.816;20.538;2024-02-26T00:20:33;98926.25;;;13.57;78.17
66176;BME280;52977;44.816;20.538;2024-02-26T00:23:00;98920.69;;;13.53;78.01
66176;BME280;52977;44.816;20.538;2024-02-26T00:25:26;98920.13;;;13.44;78.35
66176;BME280;52977;44.816;20.538;2024-02-26T00:27:53;98919.31;;;13.43;78.53
66176;BME280;52977;44.816;20.538;2024-02-26T00:30:19;98925.25;;;13.45;78.81
66176;BME280;52977;44.816;20.538;2024-02-26T00:32:48;98931.94;;;13.48;78.44
66176;BME280;52977;44.816;20.538;2024-02-26T00:35:14;98930.41;;;13.50;78.36
66176;BME280;52977;44.816;20.538;2024-02-26T00:37:41;98915.78;;;13.43;78.67
66176;BME280;52977;44.816;20.538;2024-02-26T00:40:09;98913.03;;;13.43;78.97
66176;BME280;52977;44.816;20.538;2024-02-26T00:42:36;98908.72;;;13.42;79.20
66176;BME280;52977;44.816;20.538;2024-02-26T00:45:02;98910.66;;;13.41;78.98
66176;BME280;52977;44.816;20.538;2024-02-26T00:47:29;98915.78;;;13.43;79.10
66176;BME280;52977;44.816;20.538;2024-02-26T00:49:55;98921.63;;;13.41;78.95
66176;BME280;52977;44.816;20.538;2024-02-26T00:52:21;98921.53;;;13.38;79.41
66176;BME280;52977;44.816;20.538;2024-02-26T00:54:47;98926.25;;;13.37;79.12
66176;BME280;52977;44.816;20.538;2024-02-26T00:57:14;98918.44;;;13.39;79.01
66176;BME280;52977;44.816;20.538;2024-02-26T00:59:40;98916.50;;;13.40;78.72
66176;BME280;52977;44.816;20.538;2024-02-26T01:02:07;98910.22;;;13.39;78.81
66176;BME280;52977;44.816;20.538;2024-02-26T01:04:35;98908.19;;;13.36;79.19
66176;BME280;52977;44.816;20.538;2024-02-26T01:07:02;98903.06;;;13.34;78.80
66176;BME280;52977;44.816;20.538;2024-02-26T01:09:30;98899.03;;;13.28;79.15
66176;BME280;52977;44.816;20.538;2024-02-26T01:11:56;98893.81;;;13.23;79.51
66176;BME280;52977;44.816;20.538;2024-02-26T01:14:23;98896.91;;;13.22;79.52
66176;BME280;52977;44.816;20.538;2024-02-26T01:16:49;98891.84;;;13.24;79.70
66176;BME280;52977;44.816;20.538;2024-02-26T01:19:16;98902.09;;;13.27;79.28
66176;BME280;52977;44.816;20.538;2024-02-26T01:21:42;98899.28;;;13.23;79.50
66176;BME280;52977;44.816;20.538;2024-02-26T01:24:09;98899.28;;;13.23;79.49
66176;BME280;52977;44.816;20.538;2024-02-26T01:26:35;98888.19;;;13.16;79.35
66176;BME280;52977;44.816;20.538;2024-02-26T01:29:01;98895.19;;;13.13;79.72
66176;BME280;52977;44.816;20.538;2024-02-26T01:31:28;98894.81;;;13.15;79.60
66176;BME280;52977;44.816;20.538;2024-02-26T01:33:54;98899.94;;;13.16;79.64
66176;BME280;52977;44.816;20.538;2024-02-26T01:36:20;98896.09;;;13.21;79.61
66176;BME280;52977;44.816;20.538;2024-02-26T01:38:47;98899.16;;;13.16;79.60
66176;BME280;52977;44.816;20.538;2024-02-26T01:41:14;98894.44;;;13.16;79.60
66176;BME280;52977;44.816;20.538;2024-02-26T01:43:40;98894.53;;;13.20;79.59
66176;BME280;52977;44.816;20.538;2024-02-26T01:46:11;98893.66;;;13.16;79.85
66176;BME280;52977;44.816;20.538;2024-02-26T01:48:44;98893.22;;;13.14;79.83
66176;BME280;52977;44.816;20.538;2024-02-26T01:51:13;98895.91;;;13.10;80.08
66176;BME280;52977;44.816;20.538;2024-02-26T01:53:40;98889.34;;;13.15;79.93
66176;BME280;52977;44.816;20.538;2024-02-26T01:56:07;98887.38;;;13.15;79.87
66176;BME280;52977;44.816;20.538;2024-02-26T01:58:35;98888.47;;;13.11;80.42
66176;BME280;52977;44.816;20.538;2024-02-26T02:01:02;98889.59;;;13.10;80.31
66176;BME280;52977;44.816;20.538;2024-02-26T02:03:30;98886.00;;;13.06;80.48
66176;BME280;52977;44.816;20.538;2024-02-26T02:05:56;98887.97;;;13.05;80.23
66176;BME280;52977;44.816;20.538;2024-02-26T02:08:23;98893.44;;;13.05;80.68
66176;BME280;52977;44.816;20.538;2024-02-26T02:10:50;98890.19;;;12.99;80.96
66176;BME280;52977;44.816;20.538;2024-02-26T02:13:16;98884.75;;;13.03;80.32
66176;BME280;52977;44.816;20.538;2024-02-26T02:15:43;98885.63;;;13.07;80.48
66176;BME280;52977;44.816;20.538;2024-02-26T02:18:09;98882.38;;;13.02;80.35
66176;BME280;52977;44.816;20.538;2024-02-26T02:20:35;98884.34;;;13.01;80.27
66176;BME280;52977;44.816;20.538;2024-02-26T02:23:02;98878.88;;;13.01;80.18
66176;BME280;52977;44.816;20.538;2024-02-26T02:25:28;98886.28;;;13.01;80.54
66176;BME280;52977;44.816;20.538;2024-02-26T02:27:55;98885.06;;;12.98;80.38
66176;BME280;52977;44.816;20.538;2024-02-26T02:30:28;98884.63;;;12.96;80.29
66176;BME280;52977;44.816;20.538;2024-02-26T02:32:55;98887.34;;;12.96;80.36
66176;BME280;52977;44.816;20.538;2024-02-26T02:35:23;98883.22;;;12.86;80.78
66176;BME280;52977;44.816;20.538;2024-02-26T02:37:51;98884.19;;;12.94;80.65
66176;BME280;52977;44.816;20.538;2024-02-26T02:40:18;98883.88;;;12.99;80.13
66176;BME280;52977;44.816;20.538;2024-02-26T02:42:44;98889.47;;;13.03;79.58
66176;BME280;52977;44.816;20.538;2024-02-26T02:45:11;98898.75;;;12.98;79.82
66176;BME280;52977;44.816;20.538;2024-02-26T02:47:37;98894.53;;;13.01;80.20
66176;BME280;52977;44.816;20.538;2024-02-26T02:50:03;98893.69;;;13.00;80.28
66176;BME280;52977;44.816;20.538;2024-02-26T02:52:29;98903.16;;;13.03;79.80
66176;BME280;52977;44.816;20.538;2024-02-26T02:54:56;98899.91;;;12.97;79.93
66176;BME280;52977;44.816;20.538;2024-02-26T02:57:22;98903.78;;;12.96;80.00
66176;BME280;52977;44.816;20.538;2024-02-26T02:59:48;98896.75;;;12.95;80.17
66176;BME280;52977;44.816;20.538;2024-02-26T03:02:15;98899.47;;;12.95;79.94
66176;BME280;52977;44.816;20.538;2024-02-26T03:04:41;98898.75;;;12.98;80.01
66176;BME280;52977;44.816;20.538;2024-02-26T03:07:07;98890.53;;;12.98;80.08
66176;BME280;52977;44.816;20.538;2024-02-26T03:09:33;98888.59;;;12.98;80.18
66176;BME280;52977;44.816;20.538;2024-02-26T03:12:00;98887.34;;;12.96;80.04
66176;BME280;52977;44.816;20.538;2024-02-26T03:14:26;98887.72;;;12.94;79.94
66176;BME280;52977;44.816;20.538;2024-02-26T03:16:56;98884.19;;;12.94;79.86
66176;BME280;52977;44.816;20.538;2024-02-26T03:19:22;98888.16;;;12.96;79.75
66176;BME280;52977;44.816;20.538;2024-02-26T03:21:49;98888.78;;;12.90;79.97
66176;BME280;52977;44.816;20.538;2024-02-26T03:24:15;98878.97;;;12.89;79.94
66176;BME280;52977;44.816;20.538;2024-02-26T03:26:42;98879.19;;;12.80;80.44
66176;BME280;52977;44.816;20.538;2024-02-26T03:29:09;98885.03;;;12.78;80.31
66176;BME280;52977;44.816;20.538;2024-02-26T03:31:36;98883.44;;;12.77;79.96
66176;BME280;52977;44.816;20.538;2024-02-26T03:34:01;98876.00;;;12.78;79.99
66176;BME280;52977;44.816;20.538;2024-02-26T03:36:28;98878.03;;;12.81;80.02
66176;BME280;52977;44.816;20.538;2024-02-26T03:38:54;98873.00;;;12.83;79.86
66176;BME280;52977;44.816;20.538;2024-02-26T03:41:20;98875.22;;;12.77;79.76
66176;BME280;52977;44.816;20.538;2024-02-26T03:43:47;98876.09;;;12.81;79.71
66176;BME280;52977;44.816;20.538;2024-02-26T03:46:13;98876.09;;;12.81;79.43
66176;BME280;52977;44.816;20.538;2024-02-26T03:48:41;98866.22;;;12.77;79.69
66176;BME280;52977;44.816;20.538;2024-02-26T03:51:08;98877.22;;;12.80;79.65
66176;BME280;52977;44.816;20.538;2024-02-26T03:53:38;98859.22;;;12.79;79.58
66176;BME280;52977;44.816;20.538;2024-02-26T03:56:05;98867.50;;;12.83;79.88
66176;BME280;52977;44.816;20.538;2024-02-26T03:58:32;98870.16;;;12.79;79.84
66176;BME280;52977;44.816;20.538;2024-02-26T04:00:59;98867.00;;;12.77;79.75
66176;BME280;52977;44.816;20.538;2024-02-26T04:03:25;98869.13;;;12.68;80.11
66176;BME280;52977;44.816;20.538;2024-02-26T04:05:51;98871.09;;;12.68;80.14
66176;BME280;52977;44.816;20.538;2024-02-26T04:08:18;98864.09;;;12.70;80.06
66176;BME280;52977;44.816;20.538;2024-02-26T04:10:43;98863.94;;;12.63;80.03
66176;BME280;52977;44.816;20.538;2024-02-26T04:13:10;98861.22;;;12.63;79.99
66176;BME280;52977;44.816;20.538;2024-02-26T04:15:36;98869.06;;;12.64;80.10
66176;BME280;52977;44.816;20.538;2024-02-26T04:18:03;98873.72;;;12.64;79.81
66176;BME280;52977;44.816;20.538;2024-02-26T04:20:29;98866.69;;;12.63;79.95
66176;BME280;52977;44.816;20.538;2024-02-26T04:22:56;98872.06;;;12.59;79.59
66176;BME280;52977;44.816;20.538;2024-02-26T04:25:22;98862.41;;;12.65;79.44
66176;BME280;52977;44.816;20.538;2024-02-26T04:27:48;98867.56;;;12.67;79.38
66176;BME280;52977;44.816;20.538;2024-02-26T04:30:15;98863.06;;;12.59;79.75
66176;BME280;52977;44.816;20.538;2024-02-26T04:32:43;98866.06;;;12.54;79.74
66176;BME280;52977;44.816;20.538;2024-02-26T04:35:09;98861.13;;;12.59;79.59
66176;BME280;52977;44.816;20.538;2024-02-26T04:37:36;98868.91;;;12.57;79.44
66176;BME280;52977;44.816;20.538;2024-02-26T04:40:02;98880.28;;;12.59;79.53
66176;BME280;52977;44.816;20.538;2024-02-26T04:42:29;98872.06;;;12.59;79.37
66176;BME280;52977;44.816;20.538;2024-02-26T04:44:55;98879.56;;;12.62;78.89
66176;BME280;52977;44.816;20.538;2024-02-26T04:47:22;98881.94;;;12.64;79.19
66176;BME280;52977;44.816;20.538;2024-02-26T04:49:51;98878.41;;;12.63;79.25
66176;BME280;52977;44.816;20.538;2024-02-26T04:52:18;98874.59;;;12.68;79.49
66176;BME280;52977;44.816;20.538;2024-02-26T04:54:45;98880.00;;;12.64;79.49
66176;BME280;52977;44.816;20.538;2024-02-26T04:57:11;98871.00;;;12.64;79.60
66176;BME280;52977;44.816;20.538;2024-02-26T04:59:38;98875.31;;;12.65;79.24
66176;BME280;52977;44.816;20.538;2024-02-26T05:02:04;98880.00;;;12.64;79.47
66176;BME280;52977;44.816;20.538;2024-02-26T05:04:30;98877.19;;;12.61;79.67
66176;BME280;52977;44.816;20.538;2024-02-26T05:06:56;98876.75;;;12.59;80.16
66176;BME280;52977;44.816;20.538;2024-02-26T05:09:23;98875.44;;;12.53;80.01
66176;BME280;52977;44.816;20.538;2024-02-26T05:11:49;98880.47;;;12.51;79.99
66176;BME280;52977;44.816;20.538;2024-02-26T05:14:16;98878.63;;;12.55;80.13
66176;BME280;52977;44.816;20.538;2024-02-26T05:16:42;98884.53;;;12.57;80.02
66176;BME280;52977;44.816;20.538;2024-02-26T05:19:08;98890.00;;;12.57;80.06
66176;BME280;52977;44.816;20.538;2024-02-26T05:21:34;98877.44;;;12.56;79.93
66176;BME280;52977;44.816;20.538;2024-02-26T05:24:01;98880.38;;;12.63;79.63
66176;BME280;52977;44.816;20.538;2024-02-26T05:26:27;98892.72;;;12.57;79.54
66176;BME280;52977;44.816;20.538;2024-02-26T05:28:53;98883.38;;;12.58;80.01
66176;BME280;52977;44.816;20.538;2024-02-26T05:31:26;98892.66;;;12.53;80.26
66176;BME280;52977;44.816;20.538;2024-02-26T05:33:52;98887.19;;;12.53;80.32
66176;BME280;52977;44.816;20.538;2024-02-26T05:36:22;98889.28;;;12.60;80.41
66176;BME280;52977;44.816;20.538;2024-02-26T05:38:48;98887.72;;;12.59;80.25
66176;BME280;52977;44.816;20.538;2024-02-26T05:41:16;98884.69;;;12.64;80.24
66176;BME280;52977;44.816;20.538;2024-02-26T05:43:42;98884.69;;;12.64;79.81
66176;BME280;52977;44.816;20.538;2024-02-26T05:46:09;98884.88;;;12.71;80.08
66176;BME280;52977;44.816;20.538;2024-02-26T05:48:35;98883.44;;;12.77;79.76
66176;BME280;52977;44.816;20.538;2024-02-26T05:51:01;98881.06;;;12.76;79.96
66176;BME280;52977;44.816;20.538;2024-02-26T05:53:28;98887.03;;;12.81;79.68
66176;BME280;52977;44.816;20.538;2024-02-26T05:55:54;98894.47;;;12.81;79.78
66176;BME280;52977;44.816;20.538;2024-02-26T05:58:20;98900.91;;;12.89;79.31
66176;BME280;52977;44.816;20.538;2024-02-26T06:00:46;98896.84;;;12.82;79.72
66176;BME280;52977;44.816;20.538;2024-02-26T06:03:13;98901.81;;;12.77;79.89
66176;BME280;52977;44.816;20.538;2024-02-26T06:05:39;98910.72;;;12.74;80.23
66176;BME280;52977;44.816;20.538;2024-02-26T06:08:06;98898.25;;;12.76;80.29
66176;BME280;52977;44.816;20.538;2024-02-26T06:10:32;98902.44;;;12.70;80.48
66176;BME280;52977;44.816;20.538;2024-02-26T06:12:59;98906.06;;;12.74;80.75
66176;BME280;52977;44.816;20.538;2024-02-26T06:15:25;98912.78;;;12.77;80.66
66176;BME280;52977;44.816;20.538;2024-02-26T06:17:51;98919.81;;;12.78;80.63
66176;BME280;52977;44.816;20.538;2024-02-26T06:20:18;98917.72;;;12.71;81.21
66176;BME280;52977;44.816;20.538;2024-02-26T06:22:44;98927.16;;;12.74;81.05
66176;BME280;52977;44.816;20.538;2024-02-26T06:25:11;98927.97;;;12.74;81.37
66176;BME280;52977;44.816;20.538;2024-02-26T06:27:37;98935.00;;;12.75;80.96
66176;BME280;52977;44.816;20.538;2024-02-26T06:30:04;98940.06;;;12.73;81.23
66176;BME280;52977;44.816;20.538;2024-02-26T06:32:30;98937.75;;;12.75;81.44
66176;BME280;52977;44.816;20.538;2024-02-26T06:34:56;98935.81;;;12.76;81.19
66176;BME280;52977;44.816;20.538;2024-02-26T06:37:23;98940.16;;;12.77;81.28
66176;BME280;52977;44.816;20.538;2024-02-26T06:39:49;98941.81;;;12.81;81.02
66176;BME280;52977;44.816;20.538;2024-02-26T06:42:18;98939.06;;;12.81;80.97
66176;BME280;52977;44.816;20.538;2024-02-26T06:44:44;98947.72;;;12.83;80.70
66176;BME280;52977;44.816;20.538;2024-02-26T06:47:10;98952.16;;;12.88;81.10
66176;BME280;52977;44.816;20.538;2024-02-26T06:49:37;98944.81;;;12.92;80.76
66176;BME280;52977;44.816;20.538;2024-02-26T06:52:04;98944.81;;;12.92;81.33
66176;BME280;52977;44.816;20.538;2024-02-26T06:54:31;98942.50;;;12.94;81.10
66176;BME280;52977;44.816;20.538;2024-02-26T06:56:57;98947.63;;;12.96;80.81
66176;BME280;52977;44.816;20.538;2024-02-26T06:59:24;98945.34;;;12.98;81.15
66176;BME280;52977;44.816;20.538;2024-02-26T07:01:50;98950.44;;;12.99;81.29
66176;BME280;52977;44.816;20.538;2024-02-26T07:04:16;98951.69;;;13.02;81.13
66176;BME280;52977;44.816;20.538;2024-02-26T07:06:43;98954.50;;;13.06;81.11
66176;BME280;52977;44.816;20.538;2024-02-26T07:09:09;98955.72;;;13.08;81.51
66176;BME280;52977;44.816;20.538;2024-02-26T07:11:37;98955.72;;;13.08;81.11
66176;BME280;52977;44.816;20.538;2024-02-26T07:14:05;98953.44;;;13.10;81.17
66176;BME280;52977;44.816;20.538;2024-02-26T07:16:31;98956.19;;;13.10;81.16
66176;BME280;52977;44.816;20.538;2024-02-26T07:18:58;98967.19;;;13.14;81.28
66176;BME280;52977;44.816;20.538;2024-02-26T07:21:24;98957.22;;;13.06;81.49
66176;BME280;52977;44.816;20.538;2024-02-26T07:23:50;98963.31;;;13.15;81.71
66176;BME280;52977;44.816;20.538;2024-02-26T07:26:17;98958.78;;;13.23;81.75
66176;BME280;52977;44.816;20.538;2024-02-26T07:28:45;98962.91;;;13.32;81.52
66176;BME280;52977;44.816;20.538;2024-02-26T07:31:12;98964.63;;;13.37;80.62
66176;BME280;52977;44.816;20.538;2024-02-26T07:33:38;98974.50;;;13.42;80.50
66176;BME280;52977;44.816;20.538;2024-02-26T07:36:05;98970.16;;;13.41;79.82
66176;BME280;52977;44.816;20.538;2024-02-26T07:38:31;98975.72;;;13.44;79.73
66176;BME280;52977;44.816;20.538;2024-02-26T07:40:58;98966.41;;;13.49;79.35
66176;BME280;52977;44.816;20.538;2024-02-26T07:43:25;98976.38;;;13.57;79.12
66176;BME280;52977;44.816;20.538;2024-02-26T07:45:51;98970.41;;;13.52;78.90
66176;BME280;52977;44.816;20.538;2024-02-26T07:48:17;98971.91;;;13.49;79.39
66176;BME280;52977;44.816;20.538;2024-02-26T07:50:44;98968.16;;;13.57;78.97
66176;BME280;52977;44.816;20.538;2024-02-26T07:53:10;98969.16;;;13.68;78.84
66176;BME280;52977;44.816;20.538;2024-02-26T07:55:36;98959.72;;;13.66;78.96
66176;BME280;52977;44.816;20.538;2024-02-26T07:58:03;98964.63;;;13.76;78.38
66176;BME280;52977;44.816;20.538;2024-02-26T08:00:30;98960.44;;;13.82;77.58
66176;BME280;52977;44.816;20.538;2024-02-26T08:02:56;98966.38;;;13.84;77.54
66176;BME280;52977;44.816;20.538;2024-02-26T08:05:22;98965.63;;;13.88;77.89
66176;BME280;52977;44.816;20.538;2024-02-26T08:07:49;98970.88;;;13.96;77.46
66176;BME280;52977;44.816;20.538;2024-02-26T08:10:15;98964.75;;;14.03;76.88
66176;BME280;52977;44.816;20.538;2024-02-26T08:12:41;98963.66;;;14.08;76.70
66176;BME280;52977;44.816;20.538;2024-02-26T08:15:08;98960.19;;;14.11;76.11
66176;BME280;52977;44.816;20.538;2024-02-26T08:17:34;98964.03;;;14.06;76.44
66176;BME280;52977;44.816;20.538;2024-02-26T08:20:02;98963.59;;;14.04;76.55
66176;BME280;52977;44.816;20.538;2024-02-26T08:22:27;98961.72;;;14.08;76.17
66176;BME280;52977;44.816;20.538;2024-02-26T08:24:53;98969.88;;;14.05;75.98
66176;BME280;52977;44.816;20.538;2024-02-26T08:27:19;98957.47;;;14.11;75.94
66176;BME280;52977;44.816;20.538;2024-02-26T08:29:46;98957.78;;;14.09;76.05
66176;BME280;52977;44.816;20.538;2024-02-26T08:32:12;98956.84;;;14.21;75.58
66176;BME280;52977;44.816;20.538;2024-02-26T08:34:38;98949.19;;;14.30;75.71
66176;BME280;52977;44.816;20.538;2024-02-26T08:37:06;98960.00;;;14.23;75.51
66176;BME280;52977;44.816;20.538;2024-02-26T08:39:32;98946.56;;;14.38;75.12
66176;BME280;52977;44.816;20.538;2024-02-26T08:41:58;98957.28;;;14.46;74.43
66176;BME280;52977;44.816;20.538;2024-02-26T08:44:25;98948.78;;;14.55;74.12
66176;BME280;52977;44.816;20.538;2024-02-26T08:46:52;98950.09;;;14.61;73.89
66176;BME280;52977;44.816;20.538;2024-02-26T08:49:18;98945.38;;;14.62;74.05
66176;BME280;52977;44.816;20.538;2024-02-26T08:51:44;98938.78;;;14.66;73.11
66176;BME280;52977;44.816;20.538;2024-02-26T08:54:11;98936.97;;;14.74;72.98
66176;BME280;52977;44.816;20.538;2024-02-26T08:56:37;98935.75;;;14.72;73.28
66176;BME280;52977;44.816;20.538;2024-02-26T08:59:04;98937.50;;;14.83;73.83
66176;BME280;52977;44.816;20.538;2024-02-26T09:01:33;98937.63;;;14.91;73.24
66176;BME280;52977;44.816;20.538;2024-02-26T09:03:59;98940.47;;;14.98;72.81
66176;BME280;52977;44.816;20.538;2024-02-26T09:06:26;98950.78;;;15.04;71.80
66176;BME280;52977;44.816;20.538;2024-02-26T09:08:52;98943.00;;;15.10;70.70
66176;BME280;52977;44.816;20.538;2024-02-26T09:11:18;98942.63;;;15.12;70.34
66176;BME280;52977;44.816;20.538;2024-02-26T09:13:45;98952.50;;;15.16;70.54
66176;BME280;52977;44.816;20.538;2024-02-26T09:16:12;98946.69;;;15.21;70.86
66176;BME280;52977;44.816;20.538;2024-02-26T09:18:39;98936.53;;;15.26;69.50
66176;BME280;52977;44.816;20.538;2024-02-26T09:21:05;98945.94;;;15.25;69.37
66176;BME280;52977;44.816;20.538;2024-02-26T09:23:32;98927.97;;;15.31;69.91
66176;BME280;52977;44.816;20.538;2024-02-26T09:25:59;98937.38;;;15.30;69.28
66176;BME280;52977;44.816;20.538;2024-02-26T09:28:25;98937.38;;;15.30;69.19
66176;BME280;52977;44.816;20.538;2024-02-26T09:30:52;98931.56;;;15.35;68.82
66176;BME280;52977;44.816;20.538;2024-02-26T09:33:18;98936.34;;;15.42;68.29
66176;BME280;52977;44.816;20.538;2024-02-26T09:35:44;98937.53;;;15.41;68.09
66176;BME280;52977;44.816;20.538;2024-02-26T09:38:11;98939.53;;;15.44;67.46
66176;BME280;52977;44.816;20.538;2024-02-26T09:40:39;98934.03;;;15.44;67.97
66176;BME280;52977;44.816;20.538;2024-02-26T09:43:10;98932.88;;;15.48;67.76
66176;BME280;52977;44.816;20.538;2024-02-26T09:45:40;98932.13;;;15.51;67.33
66176;BME280;52977;44.816;20.538;2024-02-26T09:48:08;98940.50;;;15.59;66.83
66176;BME280;52977;44.816;20.538;2024-02-26T09:50:36;98938.16;;;15.61;66.97
66176;BME280;52977;44.816;20.538;2024-02-26T09:53:04;98935.41;;;15.61;66.57
66176;BME280;52977;44.816;20.538;2024-02-26T09:55:33;98931.13;;;15.63;66.43
66176;BME280;52977;44.816;20.538;2024-02-26T09:57:59;98925.63;;;15.67;66.55
66176;BME280;52977;44.816;20.538;2024-02-26T10:00:30;98928.81;;;15.69;66.41
66176;BME280;52977;44.816;20.538;2024-02-26T10:03:09;98924.53;;;15.71;66.43
66176;BME280;52977;44.816;20.538;2024-02-26T10:05:41;98921.03;;;15.75;65.98
66176;BME280;52977;44.816;20.538;2024-02-26T10:08:12;98927.00;;;15.80;66.13
66176;BME280;52977;44.816;20.538;2024-02-26T10:10:38;98922.34;;;15.84;66.46
66176;BME280;52977;44.816;20.538;2024-02-26T10:13:05;98919.28;;;15.93;65.86
66176;BME280;52977;44.816;20.538;2024-02-26T10:15:36;98921.28;;;15.96;65.41
66176;BME280;52977;44.816;20.538;2024-02-26T10:18:06;98915.44;;;16.01;64.64
66176;BME280;52977;44.816;20.538;2024-02-26T10:20:33;98920.97;;;16.05;64.89
66176;BME280;52977;44.816;20.538;2024-02-26T10:23:02;98915.53;;;16.12;64.05
66176;BME280;52977;44.816;20.538;2024-02-26T10:25:29;98908.09;;;16.16;64.08
66176;BME280;52977;44.816;20.538;2024-02-26T10:28:01;98909.72;;;16.21;64.34
66176;BME280;52977;44.816;20.538;2024-02-26T10:30:30;98912.91;;;16.27;63.66
66176;BME280;52977;44.816;20.538;2024-02-26T10:32:57;98907.03;;;16.28;63.57
66176;BME280;52977;44.816;20.538;2024-02-26T10:35:23;98906.63;;;16.30;63.49
66176;BME280;52977;44.816;20.538;2024-02-26T10:37:50;98905.09;;;16.29;63.45
66176;BME280;52977;44.816;20.538;2024-02-26T10:40:16;98907.41;;;16.27;63.32
66176;BME280;52977;44.816;20.538;2024-02-26T10:42:43;98905.47;;;16.31;63.48
66176;BME280;52977;44.816;20.538;2024-02-26T10:45:11;98899.63;;;16.39;63.32
66176;BME280;52977;44.816;20.538;2024-02-26T10:47:40;98903.22;;;16.44;63.08
66176;BME280;52977;44.816;20.538;2024-02-26T10:50:06;98892.28;;;16.51;63.16
66176;BME280;52977;44.816;20.538;2024-02-26T10:52:34;98897.41;;;16.56;63.17
66176;BME280;52977;44.816;20.538;2024-02-26T10:55:02;98886.47;;;16.67;63.16
66176;BME280;52977;44.816;20.538;2024-02-26T10:57:33;98886.50;;;16.70;62.83
66176;BME280;52977;44.816;20.538;2024-02-26T11:00:02;98883.75;;;16.74;62.41
66176;BME280;52977;44.816;20.538;2024-02-26T11:02:32;98885.75;;;16.77;62.39
66176;BME280;52977;44.816;20.538;2024-02-26T11:05:03;98883.03;;;16.81;63.00
66176;BME280;52977;44.816;20.538;2024-02-26T11:07:49;98881.88;;;16.85;62.13
66176;BME280;52977;44.816;20.538;2024-02-26T11:10:16;98882.28;;;16.87;61.98
66176;BME280;52977;44.816;20.538;2024-02-26T11:12:43;98879.56;;;16.91;62.17
66176;BME280;52977;44.816;20.538;2024-02-26T11:15:11;98890.63;;;16.95;61.84
66176;BME280;52977;44.816;20.538;2024-02-26T11:17:38;98882.75;;;16.97;61.09
66176;BME280;52977;44.816;20.538;2024-02-26T11:20:09;98883.16;;;16.99;60.58
66176;BME280;52977;44.816;20.538;2024-02-26T11:22:37;98885.97;;;17.06;60.16
66176;BME280;52977;44.816;20.538;2024-02-26T11:25:03;98882.44;;;17.09;60.05
66176;BME280;52977;44.816;20.538;2024-02-26T11:27:36;98874.56;;;17.15;60.05
66176;BME280;52977;44.816;20.538;2024-02-26T11:30:05;98877.75;;;17.20;59.86
66176;BME280;52977;44.816;20.538;2024-02-26T11:32:34;98873.84;;;17.29;59.27
66176;BME280;52977;44.816;20.538;2024-02-26T11:35:01;98867.56;;;17.32;59.44
66176;BME280;52977;44.816;20.538;2024-02-26T11:37:27;98865.22;;;17.37;59.42
66176;BME280;52977;44.816;20.538;2024-02-26T11:39:54;98864.84;;;17.39;58.51
66176;BME280;52977;44.816;20.538;2024-02-26T11:42:25;98855.78;;;17.42;59.03
66176;BME280;52977;44.816;20.538;2024-02-26T11:44:51;98858.19;;;17.47;58.53
66176;BME280;52977;44.816;20.538;2024-02-26T11:47:22;98852.69;;;17.54;58.46
66176;BME280;52977;44.816;20.538;2024-02-26T11:49:49;98856.22;;;17.58;58.58
66176;BME280;52977;44.816;20.538;2024-02-26T11:52:15;98859.78;;;17.66;58.49
66176;BME280;52977;44.816;20.538;2024-02-26T11:54:56;98853.50;;;17.73;58.13
66176;BME280;52977;44.816;20.538;2024-02-26T12:00:14;98855.50;;;17.80;57.71
66176;BME280;52977;44.816;20.538;2024-02-26T12:02:55;98851.19;;;17.93;57.32
66176;BME280;52977;44.816;20.538;2024-02-26T12:05:31;98850.03;;;17.98;56.93
66176;BME280;52977;44.816;20.538;2024-02-26T12:10:33;98840.94;;;18.08;56.42
66176;BME280;52977;44.816;20.538;2024-02-26T12:13:12;98833.06;;;18.17;56.79
66176;BME280;52977;44.816;20.538;2024-02-26T12:15:42;98836.22;;;18.26;56.12
66176;BME280;52977;44.816;20.538;2024-02-26T12:18:15;98826.34;;;18.33;55.33
66176;BME280;52977;44.816;20.538;2024-02-26T12:20:42;98825.16;;;18.41;55.56
66176;BME280;52977;44.816;20.538;2024-02-26T12:23:15;98823.97;;;18.38;54.83
66176;BME280;52977;44.816;20.538;2024-02-26T12:25:43;98826.72;;;18.45;55.40
66176;BME280;52977;44.816;20.538;2024-02-26T12:28:10;98826.31;;;18.58;55.34
66176;BME280;52977;44.816;20.538;2024-02-26T12:30:35;98827.13;;;18.66;54.88
66176;BME280;52977;44.816;20.538;2024-02-26T12:33:02;98824.31;;;18.73;55.06
66176;BME280;52977;44.816;20.538;2024-02-26T12:35:29;98825.88;;;18.74;54.80
66176;BME280;52977;44.816;20.538;2024-02-26T12:37:58;98825.09;;;18.81;54.06
66176;BME280;52977;44.816;20.538;2024-02-26T12:40:24;98823.13;;;18.88;53.53
66176;BME280;52977;44.816;20.538;2024-02-26T12:42:53;98819.56;;;18.73;53.88
66176;BME280;52977;44.816;20.538;2024-02-26T12:45:20;98820.34;;;18.77;53.77
66176;BME280;52977;44.816;20.538;2024-02-26T12:47:46;98812.03;;;18.99;53.82
66176;BME280;52977;44.816;20.538;2024-02-26T12:50:13;98819.47;;;19.17;53.14
66176;BME280;52977;44.816;20.538;2024-02-26T12:52:44;98803.50;;;19.46;64.68
66176;BME280;52977;44.816;20.538;2024-02-26T12:55:15;98814.09;;;19.62;56.75